Time;durP1;ratioP1;P1;durP2;ratioP2;P2;SDS_P1;SDS_P2;PMS_P1;PMS_P2;Temp;Humidity;BMP_temperature;BMP_pressure;BME280_temperature;BME280_humidity;BME280_pressure;Samples;Min_cycle;Max_cycle;Signal;HPM_P1;HPM_P2
2023/09/26 00:01:01;;;;;;;9.47;8.47;;;13.30;99.90;;;;;;5052681;28;20960;-74
2023/09/26 00:03:29;;;;;;;8.90;8.03;;;13.30;99.90;;;;;;5051435;28;20434;-74
2023/09/26 00:05:57;;;;;;;8.23;7.53;;;13.30;99.90;;;;;;5052552;28;20446;-74
2023/09/26 00:08:26;;;;;;;8.63;7.93;;;13.30;99.90;;;;;;5052883;28;20805;-74
2023/09/26 00:10:54;;;;;;;7.50;6.80;;;13.20;99.90;;;;;;5051425;28;20496;-74
2023/09/26 00:13:22;;;;;;;7.20;6.60;;;13.20;99.90;;;;;;5052816;28;20466;-74
2023/09/26 00:15:50;;;;;;;7.90;7.20;;;13.20;99.90;;;;;;5052515;28;20830;-74
2023/09/26 00:18:20;;;;;;;8.37;7.70;;;13.20;99.90;;;;;;5051299;28;20454;-74
2023/09/26 00:20:48;;;;;;;8.10;7.30;;;13.20;99.90;;;;;;5052600;28;20484;-74
2023/09/26 00:23:16;;;;;;;7.37;6.67;;;13.10;99.90;;;;;;5054257;28;20440;-74
2023/09/26 00:25:45;;;;;;;8.00;7.20;;;13.10;99.90;;;;;;5056146;28;20996;-74
2023/09/26 00:28:13;;;;;;;7.37;6.77;;;13.10;99.90;;;;;;5054785;28;20971;-74
2023/09/26 00:30:42;;;;;;;7.60;6.90;;;13.10;99.90;;;;;;5056356;28;20441;-74
2023/09/26 00:33:11;;;;;;;7.37;6.77;;;13.00;99.90;;;;;;5056629;28;20540;-74
2023/09/26 00:35:41;;;;;;;7.57;6.97;;;13.00;99.90;;;;;;5054826;28;20469;-74
2023/09/26 00:38:09;;;;;;;7.50;6.80;;;13.00;99.90;;;;;;5054644;28;20461;-74
2023/09/26 00:40:40;;;;;;;7.77;7.07;;;13.00;99.90;;;;;;5055973;28;20444;-74
2023/09/26 00:43:09;;;;;;;7.70;7.00;;;12.90;99.90;;;;;;5054638;28;20454;-74
2023/09/26 00:45:38;;;;;;;9.40;7.47;;;12.90;99.90;;;;;;5054921;28;20540;-74
2023/09/26 00:48:07;;;;;;;8.00;7.33;;;12.90;99.90;;;;;;5054715;28;20531;-74
2023/09/26 00:50:36;;;;;;;8.80;7.73;;;12.90;99.90;;;;;;5054675;28;20446;-74
2023/09/26 00:53:05;;;;;;;8.10;7.40;;;12.90;99.90;;;;;;5055888;28;20590;-74
2023/09/26 00:55:33;;;;;;;7.27;6.60;;;12.80;99.90;;;;;;5055835;28;20489;-74
2023/09/26 00:58:03;;;;;;;7.87;7.17;;;12.80;99.90;;;;;;5054538;28;20537;-74
2023/09/26 01:00:31;;;;;;;7.83;7.10;;;12.80;99.90;;;;;;5055902;28;20434;-74
2023/09/26 01:03:00;;;;;;;7.93;7.33;;;12.70;99.90;;;;;;5055832;28;20517;-74
2023/09/26 01:05:29;;;;;;;7.90;7.20;;;12.70;99.90;;;;;;5055777;28;20446;-74
2023/09/26 01:07:57;;;;;;;8.37;7.67;;;12.70;99.90;;;;;;5056047;28;20439;-74
2023/09/26 01:10:27;;;;;;;8.23;7.53;;;12.70;99.90;;;;;;5056062;28;20435;-74
2023/09/26 01:12:55;;;;;;;8.20;7.43;;;12.70;99.90;;;;;;5054534;28;20470;-74
2023/09/26 01:15:36;;;;;;;7.20;6.60;;;12.60;99.90;;;;;;5054489;28;20458;-74
2023/09/26 01:18:09;;;;;;;8.73;7.73;;;12.60;99.90;;;;;;5056092;28;20518;-74
2023/09/26 01:20:39;;;;;;;8.60;7.80;;;12.60;99.90;;;;;;5055697;28;20430;-74
2023/09/26 01:23:07;;;;;;;9.00;8.10;;;12.60;99.90;;;;;;5054480;28;20533;-74
2023/09/26 01:25:38;;;;;;;9.00;8.30;;;12.60;99.90;;;;;;5057187;28;20489;-74
2023/09/26 01:28:07;;;;;;;8.37;7.67;;;12.50;99.90;;;;;;5054352;28;20446;-74
2023/09/26 01:30:37;;;;;;;8.40;7.70;;;12.50;99.90;;;;;;5055293;28;20440;-74
2023/09/26 01:33:08;;;;;;;9.53;8.73;;;12.50;99.90;;;;;;5054841;28;20473;-74
2023/09/26 01:35:36;;;;;;;8.93;8.13;;;12.50;99.90;;;;;;5055231;28;20449;-74
2023/09/26 01:38:05;;;;;;;8.00;7.40;;;12.50;99.90;;;;;;5054967;28;20462;-74
2023/09/26 01:40:33;;;;;;;9.10;8.40;;;12.50;99.90;;;;;;5053744;28;20949;-74
2023/09/26 01:43:03;;;;;;;8.40;7.60;;;12.40;99.90;;;;;;5053507;28;20508;-74
2023/09/26 01:45:31;;;;;;;8.83;8.03;;;12.40;99.90;;;;;;5053422;28;20462;-74
2023/09/26 01:48:00;;;;;;;8.73;8.03;;;12.40;99.90;;;;;;5053652;28;20442;-74
2023/09/26 01:50:29;;;;;;;8.70;7.90;;;12.40;99.90;;;;;;5053443;28;20430;-74
2023/09/26 01:52:57;;;;;;;9.33;7.87;;;12.30;99.90;;;;;;5053364;28;20568;-74
2023/09/26 01:55:25;;;;;;;11.20;8.83;;;12.30;99.90;;;;;;5054575;28;20875;-74
2023/09/26 01:57:53;;;;;;;8.60;7.90;;;12.40;99.90;;;;;;5053260;28;20826;-74
2023/09/26 02:00:23;;;;;;;9.20;8.50;;;12.40;99.90;;;;;;5053341;28;20434;-74
2023/09/26 02:02:52;;;;;;;9.00;8.20;;;12.30;99.90;;;;;;5054626;28;20442;-74
2023/09/26 02:05:22;;;;;;;9.40;8.50;;;12.30;99.90;;;;;;5054385;28;20511;-74
2023/09/26 02:07:50;;;;;;;9.77;8.93;;;12.30;99.90;;;;;;5054415;28;20473;-74
2023/09/26 02:10:19;;;;;;;9.40;8.60;;;12.20;99.90;;;;;;5053062;28;20861;-74
2023/09/26 02:12:49;;;;;;;9.73;9.03;;;12.20;99.90;;;;;;5053109;28;20477;-74
2023/09/26 02:15:18;;;;;;;9.70;8.90;;;12.20;99.90;;;;;;5052923;28;20546;-74
2023/09/26 02:17:47;;;;;;;9.23;8.43;;;12.20;99.90;;;;;;5052926;28;20451;-74
2023/09/26 02:20:17;;;;;;;9.80;8.90;;;12.20;99.90;;;;;;5052802;28;20454;-74
2023/09/26 02:22:47;;;;;;;9.63;8.63;;;12.20;99.90;;;;;;5054806;28;20422;-74
2023/09/26 02:25:18;;;;;;;9.20;8.43;;;12.10;99.90;;;;;;5054375;28;20454;-73
2023/09/26 02:27:48;;;;;;;9.37;8.60;;;12.10;99.90;;;;;;5052736;28;20449;-74
2023/09/26 02:30:19;;;;;;;9.30;8.47;;;12.10;99.90;;;;;;5052665;28;20787;-74
2023/09/26 02:32:50;;;;;;;8.90;8.20;;;12.10;99.90;;;;;;5052646;28;20446;-74
2023/09/26 02:35:19;;;;;;;9.97;9.20;;;12.00;99.90;;;;;;5052515;28;20482;-74
2023/09/26 02:37:48;;;;;;;10.97;10.03;;;12.00;99.90;;;;;;5052540;28;20503;-73
2023/09/26 02:40:17;;;;;;;10.80;9.80;;;12.00;99.90;;;;;;5052406;28;20869;-74
2023/09/26 02:42:46;;;;;;;10.53;9.57;;;12.00;99.90;;;;;;5052889;28;20808;-74
2023/09/26 02:45:14;;;;;;;11.07;10.17;;;12.00;99.90;;;;;;5053166;28;20846;-74
2023/09/26 02:47:43;;;;;;;11.00;10.10;;;12.00;99.90;;;;;;5052322;28;20861;-73
2023/09/26 02:50:14;;;;;;;10.30;9.50;;;12.00;99.90;;;;;;5052508;28;20458;-74
2023/09/26 02:52:43;;;;;;;10.90;10.00;;;11.90;99.90;;;;;;5053638;28;20963;-73
2023/09/26 02:55:12;;;;;;;11.80;10.80;;;11.90;99.90;;;;;;5053266;28;20895;-73
2023/09/26 02:57:40;;;;;;;11.53;10.63;;;11.90;99.90;;;;;;5053443;28;20865;-73
2023/09/26 03:00:16;;;;;;;11.60;10.60;;;11.90;99.90;;;;;;5052174;28;20509;-74
2023/09/26 03:02:45;;;;;;;12.00;11.00;;;11.90;99.90;;;;;;5053405;28;20488;-74
2023/09/26 03:05:16;;;;;;;11.80;10.90;;;11.90;99.90;;;;;;5053222;28;20454;-74
2023/09/26 03:07:45;;;;;;;11.43;10.50;;;11.90;99.90;;;;;;5053605;28;20423;-74
2023/09/26 03:10:14;;;;;;;11.37;10.37;;;11.90;99.90;;;;;;5051969;28;20455;-74
2023/09/26 03:12:46;;;;;;;11.93;10.83;;;11.80;99.90;;;;;;5053276;28;20525;-73
2023/09/26 03:15:15;;;;;;;13.33;12.20;;;11.80;99.90;;;;;;5053362;28;20531;-73
2023/09/26 03:17:43;;;;;;;14.77;13.37;;;11.90;99.90;;;;;;5053908;28;20438;-73
2023/09/26 03:20:15;;;;;;;13.97;12.87;;;11.80;99.90;;;;;;5053511;28;20449;-73
2023/09/26 03:22:45;;;;;;;23.70;21.50;;;11.80;99.90;;;;;;5053603;28;20446;-74
2023/09/26 03:25:14;;;;;;;20.63;18.67;;;11.80;99.90;;;;;;5055768;28;20474;-73
2023/09/26 03:27:42;;;;;;;17.30;15.80;;;11.80;99.90;;;;;;5053729;28;20442;-73
2023/09/26 03:30:11;;;;;;;19.47;17.47;;;11.80;99.90;;;;;;5052606;28;20932;-74
2023/09/26 03:32:39;;;;;;;23.43;21.20;;;11.80;99.90;;;;;;5053940;28;20500;-73
2023/09/26 03:35:09;;;;;;;16.10;14.73;;;11.70;99.90;;;;;;5051861;28;20572;-73
2023/09/26 03:37:37;;;;;;;16.40;15.00;;;11.70;99.90;;;;;;5053223;28;21071;-74
2023/09/26 03:40:08;;;;;;;14.73;13.43;;;11.70;99.90;;;;;;5051847;28;20525;-73
2023/09/26 03:42:37;;;;;;;14.60;13.40;;;11.70;99.90;;;;;;5051793;28;20495;-73
2023/09/26 03:45:10;;;;;;;13.13;12.13;;;11.70;99.90;;;;;;5052925;28;21039;-73
2023/09/26 03:47:38;;;;;;;13.23;12.23;;;11.70;99.90;;;;;;5051724;28;20431;-73
2023/09/26 03:50:09;;;;;;;12.73;11.67;;;11.60;99.90;;;;;;5053439;28;20460;-74
2023/09/26 03:52:37;;;;;;;12.60;11.60;;;11.70;99.90;;;;;;5050318;28;20454;-73
2023/09/26 03:55:10;;;;;;;12.30;11.30;;;11.60;99.90;;;;;;5052900;28;21059;-74
2023/09/26 03:57:40;;;;;;;12.67;11.67;;;11.60;99.90;;;;;;5055350;28;20422;-73
2023/09/26 04:00:15;;;;;;;12.37;11.37;;;11.60;99.90;;;;;;5055732;28;20828;-73
2023/09/26 04:02:44;;;;;;;13.40;12.30;;;11.60;99.90;;;;;;5057124;28;20436;-73
2023/09/26 04:05:12;;;;;;;12.13;11.13;;;11.60;99.90;;;;;;5056783;28;20457;-73
2023/09/26 04:07:41;;;;;;;11.90;10.80;;;11.60;99.90;;;;;;5056630;28;20433;-74
2023/09/26 04:10:11;;;;;;;11.87;10.97;;;11.50;99.90;;;;;;5056804;28;20525;-73
2023/09/26 04:12:39;;;;;;;12.67;11.63;;;11.60;99.90;;;;;;5056589;28;20889;-73
2023/09/26 04:15:09;;;;;;;21.23;19.17;;;11.50;99.90;;;;;;5056334;28;20565;-73
2023/09/26 04:17:37;;;;;;;18.50;16.77;;;11.50;99.90;;;;;;5056944;28;20491;-73
2023/09/26 04:20:16;;;;;;;16.90;15.50;;;11.50;99.90;;;;;;5056891;28;20457;-73
2023/09/26 04:23:04;;;;;;;20.87;18.70;;;11.50;99.90;;;;;;5055016;28;20950;-73
2023/09/26 04:25:34;;;;;;;17.73;16.17;;;11.50;99.90;;;;;;5055202;28;20462;-74
2023/09/26 04:28:03;;;;;;;16.47;14.87;;;11.50;99.90;;;;;;5056871;28;20418;-74
2023/09/26 04:30:35;;;;;;;16.47;15.07;;;11.40;99.90;;;;;;5056193;28;20438;-74
2023/09/26 04:33:04;;;;;;;12.83;11.63;;;11.40;99.90;;;;;;5056220;28;20450;-74
2023/09/26 04:35:32;;;;;;;12.67;11.50;;;11.40;99.90;;;;;;5054691;28;20560;-74
2023/09/26 04:38:00;;;;;;;11.80;10.70;;;11.40;99.90;;;;;;5056119;28;20461;-74
2023/09/26 04:40:29;;;;;;;11.37;10.47;;;11.40;99.90;;;;;;5056074;28;20890;-74
2023/09/26 04:43:03;;;;;;;12.77;11.67;;;11.40;99.90;;;;;;5054588;28;20453;-74
2023/09/26 04:45:31;;;;;;;37.50;33.73;;;11.40;99.90;;;;;;5056233;28;20485;-74
2023/09/26 04:48:00;;;;;;;26.80;24.00;;;11.40;99.90;;;;;;5054798;28;20442;-74
2023/09/26 04:50:28;;;;;;;19.00;17.30;;;11.30;99.90;;;;;;5055961;28;20442;-74
2023/09/26 04:52:57;;;;;;;14.30;13.20;;;11.30;99.90;;;;;;5055872;28;20981;-74
2023/09/26 04:55:25;;;;;;;12.67;11.53;;;11.30;99.90;;;;;;5054392;28;20532;-74
2023/09/26 04:57:54;;;;;;;11.70;10.80;;;11.30;99.90;;;;;;5054439;28;20446;-74
2023/09/26 05:00:23;;;;;;;11.93;10.93;;;11.30;99.90;;;;;;5055798;28;20462;-73
2023/09/26 05:02:52;;;;;;;11.30;10.40;;;11.30;99.90;;;;;;5054332;28;20446;-74
2023/09/26 05:05:21;;;;;;;12.77;11.57;;;11.30;99.90;;;;;;5054283;28;20992;-74
2023/09/26 05:07:49;;;;;;;12.43;11.20;;;11.30;99.90;;;;;;5054026;28;20448;-74
2023/09/26 05:10:18;;;;;;;13.20;12.05;;;11.30;99.90;;;;;;5054699;28;20465;-76
2023/09/26 05:12:46;;;;;;;12.77;11.57;;;11.30;99.90;;;;;;5054035;28;20199;-76
2023/09/26 05:15:16;;;;;;;13.10;12.10;;;11.40;99.90;;;;;;5055460;28;21052;-75
2023/09/26 05:17:49;;;;;;;11.43;10.53;;;11.30;99.90;;;;;;5056036;28;20476;-76
2023/09/26 05:20:18;;;;;;;12.57;11.57;;;11.30;99.90;;;;;;5054332;28;20444;-76
2023/09/26 05:22:48;;;;;;;12.47;11.47;;;11.30;99.90;;;;;;5055474;28;20430;-76
2023/09/26 05:25:17;;;;;;;13.50;12.30;;;11.30;99.90;;;;;;5055561;28;20458;-75
2023/09/26 05:27:45;;;;;;;12.37;11.37;;;11.30;99.90;;;;;;5054192;28;21007;-76
2023/09/26 05:30:15;;;;;;;13.67;12.37;;;11.30;99.90;;;;;;5054200;28;20450;-76
2023/09/26 05:32:43;;;;;;;14.87;13.67;;;11.30;99.90;;;;;;5055553;28;20806;-76
2023/09/26 05:35:12;;;;;;;14.40;13.27;;;11.30;99.90;;;;;;5053807;28;20473;-73
2023/09/26 05:37:40;;;;;;;13.77;12.60;;;11.30;99.90;;;;;;5053813;28;20444;-73
2023/09/26 05:40:09;;;;;;;14.07;12.97;;;11.30;99.90;;;;;;5056120;28;20856;-74
2023/09/26 05:42:38;;;;;;;14.73;13.33;;;11.30;99.90;;;;;;5053754;28;20442;-73
2023/09/26 05:45:09;;;;;;;13.50;12.47;;;11.30;99.90;;;;;;5054923;28;20456;-73
2023/09/26 05:47:37;;;;;;;13.50;12.30;;;11.30;99.90;;;;;;5055424;28;20842;-74
2023/09/26 05:50:06;;;;;;;13.27;12.17;;;11.30;99.90;;;;;;5055323;28;20445;-74
2023/09/26 05:52:36;;;;;;;13.30;12.20;;;11.30;99.90;;;;;;5053593;28;20953;-74
2023/09/26 05:55:05;;;;;;;13.93;12.77;;;11.30;99.90;;;;;;5053516;28;20984;-74
2023/09/26 05:57:34;;;;;;;13.87;12.63;;;11.30;99.90;;;;;;5053506;28;20537;-74
2023/09/26 06:00:04;;;;;;;13.40;12.40;;;11.30;99.90;;;;;;5054784;28;20521;-74
2023/09/26 06:02:37;;;;;;;13.20;12.20;;;11.40;99.90;;;;;;5054630;28;20410;-74
2023/09/26 06:05:06;;;;;;;13.13;12.07;;;11.40;99.90;;;;;;5053337;28;20557;-74
2023/09/26 06:07:36;;;;;;;13.70;12.70;;;11.40;99.90;;;;;;5055149;28;20442;-74
2023/09/26 06:10:06;;;;;;;13.20;12.20;;;11.50;99.90;;;;;;5053173;28;20446;-73
2023/09/26 06:12:37;;;;;;;13.23;12.13;;;11.50;99.90;;;;;;5053110;28;20955;-74
2023/09/26 06:15:07;;;;;;;14.00;12.90;;;11.60;99.90;;;;;;5052945;28;20509;-74
2023/09/26 06:17:35;;;;;;;13.80;12.70;;;11.60;99.90;;;;;;5054137;28;20473;-74
2023/09/26 06:20:07;;;;;;;12.50;11.33;;;11.70;99.90;;;;;;5052071;28;20446;-74
2023/09/26 06:22:37;;;;;;;13.60;12.60;;;11.80;99.90;;;;;;5054487;28;20803;-74
2023/09/26 06:25:06;;;;;;;14.40;13.23;;;11.90;99.90;;;;;;5054055;28;20462;-74
2023/09/26 06:27:35;;;;;;;12.60;11.60;;;12.00;99.90;;;;;;5054028;28;20430;-74
2023/09/26 06:30:05;;;;;;;14.00;12.90;;;12.00;99.90;;;;;;5053064;28;20484;-74
2023/09/26 06:32:35;;;;;;;13.10;12.10;;;12.00;99.90;;;;;;5052663;28;20466;-74
2023/09/26 06:35:03;;;;;;;13.13;12.10;;;12.10;99.90;;;;;;5052808;28;20569;-74
2023/09/26 06:37:32;;;;;;;14.10;12.90;;;12.20;99.90;;;;;;5052887;28;21081;-74
2023/09/26 06:40:04;;;;;;;14.33;13.20;;;12.20;99.90;;;;;;5054159;28;20491;-74
2023/09/26 06:42:32;;;;;;;13.87;12.80;;;12.20;99.90;;;;;;5052899;28;20445;-74
2023/09/26 06:45:01;;;;;;;13.60;12.40;;;12.30;99.90;;;;;;5053816;28;21090;-74
2023/09/26 06:47:29;;;;;;;15.17;13.97;;;12.30;99.90;;;;;;5052617;28;20496;-74
2023/09/26 06:49:57;;;;;;;12.73;11.73;;;12.30;99.90;;;;;;5054519;28;20441;-74
2023/09/26 06:52:25;;;;;;;14.30;13.10;;;12.40;99.90;;;;;;5052816;28;20477;-74
2023/09/26 06:54:53;;;;;;;14.43;13.27;;;12.40;99.90;;;;;;5052832;28;20906;-74
2023/09/26 06:57:26;;;;;;;13.07;11.97;;;12.50;99.90;;;;;;5054034;28;21071;-74
2023/09/26 06:59:55;;;;;;;13.10;12.00;;;12.50;99.90;;;;;;5052388;28;20438;-74
2023/09/26 07:02:24;;;;;;;14.37;13.20;;;12.60;99.90;;;;;;5054350;28;20449;-74
2023/09/26 07:04:54;;;;;;;13.53;12.53;;;12.60;99.90;;;;;;5052810;28;20995;-74
2023/09/26 07:07:23;;;;;;;13.97;12.60;;;12.60;99.90;;;;;;5054284;28;20541;-73
2023/09/26 07:09:52;;;;;;;13.30;12.20;;;12.60;99.90;;;;;;5054150;28;20430;-74
2023/09/26 07:12:20;;;;;;;13.20;12.20;;;12.60;99.90;;;;;;5053580;28;20444;-74
2023/09/26 07:14:49;;;;;;;14.13;12.70;;;12.70;99.90;;;;;;5053641;28;20465;-73
2023/09/26 07:17:17;;;;;;;13.83;12.77;;;12.70;99.90;;;;;;5052700;28;20492;-74
2023/09/26 07:19:46;;;;;;;14.10;12.90;;;12.70;99.90;;;;;;5052556;28;20456;-74
2023/09/26 07:22:14;;;;;;;14.43;13.23;;;12.80;99.90;;;;;;5052313;28;20448;-73
2023/09/26 07:24:42;;;;;;;14.97;13.63;;;12.80;99.90;;;;;;5053589;28;20794;-73
2023/09/26 07:27:17;;;;;;;14.90;13.60;;;12.80;99.90;;;;;;5053827;28;20786;-74
2023/09/26 07:29:46;;;;;;;14.10;12.83;;;12.90;99.90;;;;;;5052467;28;20480;-74
2023/09/26 07:32:16;;;;;;;14.50;13.40;;;12.90;99.90;;;;;;5055492;28;20465;-73
2023/09/26 07:34:45;;;;;;;12.60;11.53;;;13.00;99.90;;;;;;5057479;28;20449;-74
2023/09/26 07:37:13;;;;;;;13.93;12.63;;;13.00;99.90;;;;;;5056562;28;20473;-73
2023/09/26 07:39:43;;;;;;;13.50;12.20;;;13.00;99.90;;;;;;5057802;28;20429;-73
2023/09/26 07:42:12;;;;;;;12.47;11.57;;;13.10;99.90;;;;;;5057427;28;20806;-74
2023/09/26 07:44:40;;;;;;;11.87;10.87;;;13.10;99.90;;;;;;5057610;28;20489;-73
2023/09/26 07:47:08;;;;;;;12.30;11.30;;;13.20;99.90;;;;;;5058037;28;20442;-74
2023/09/26 07:49:40;;;;;;;13.20;12.10;;;13.20;99.90;;;;;;5058088;28;20529;-73
2023/09/26 07:52:08;;;;;;;12.13;11.13;;;13.30;99.90;;;;;;5058294;28;20536;-74
2023/09/26 07:54:36;;;;;;;13.07;11.97;;;13.30;99.90;;;;;;5055994;28;20486;-74
2023/09/26 07:57:04;;;;;;;12.03;11.03;;;13.40;99.90;;;;;;5055998;28;20477;-74
2023/09/26 07:59:34;;;;;;;13.00;11.90;;;13.40;99.90;;;;;;5057584;28;20426;-74
2023/09/26 08:02:02;;;;;;;12.90;11.87;;;13.60;99.90;;;;;;5056521;28;20484;-74
2023/09/26 08:04:30;;;;;;;11.80;10.80;;;13.60;99.90;;;;;;5061424;28;20556;-74
2023/09/26 08:07:00;;;;;;;11.60;10.67;;;13.70;99.90;;;;;;5059009;28;20438;-74
2023/09/26 08:09:28;;;;;;;11.10;10.20;;;13.80;99.90;;;;;;5058240;28;20457;-74
2023/09/26 08:11:56;;;;;;;10.93;10.03;;;13.90;99.90;;;;;;5056393;28;20933;-74
2023/09/26 08:14:24;;;;;;;10.60;9.70;;;14.00;99.90;;;;;;5057246;28;20484;-74
2023/09/26 08:16:52;;;;;;;10.93;9.97;;;14.00;99.90;;;;;;5055549;28;20469;-74
2023/09/26 08:19:21;;;;;;;9.77;8.97;;;14.10;99.90;;;;;;5056916;28;20807;-74
2023/09/26 08:21:49;;;;;;;10.03;8.70;;;14.10;99.90;;;;;;5056043;28;20454;-75
2023/09/26 08:24:18;;;;;;;9.70;8.90;;;14.20;99.90;;;;;;5057024;28;20980;-74
2023/09/26 08:26:46;;;;;;;9.90;9.10;;;14.30;99.90;;;;;;5057109;28;20437;-74
2023/09/26 08:29:14;;;;;;;10.33;9.47;;;14.30;99.90;;;;;;5056849;28;20437;-74
2023/09/26 08:31:42;;;;;;;10.67;9.70;;;14.40;99.90;;;;;;5057317;28;20471;-74
2023/09/26 08:34:11;;;;;;;10.23;9.30;;;14.40;99.90;;;;;;5057031;28;20988;-74
2023/09/26 08:36:39;;;;;;;10.30;9.40;;;14.50;99.90;;;;;;5056706;28;21039;-74
2023/09/26 08:39:08;;;;;;;11.40;10.30;;;14.60;99.90;;;;;;5058656;28;20441;-74
2023/09/26 08:41:38;;;;;;;10.37;9.47;;;14.70;99.90;;;;;;5060071;28;20435;-74
2023/09/26 08:44:07;;;;;;;10.77;9.77;;;14.80;99.90;;;;;;5056731;28;20576;-74
2023/09/26 08:46:36;;;;;;;10.13;9.17;;;14.90;99.90;;;;;;5060186;28;20446;-74
2023/09/26 08:49:06;;;;;;;10.00;9.10;;;14.90;99.90;;;;;;5058034;28;21005;-74
2023/09/26 08:51:34;;;;;;;10.60;9.70;;;15.10;99.90;;;;;;5057895;28;20421;-74
2023/09/26 08:54:03;;;;;;;10.43;8.80;;;15.20;99.90;;;;;;5056846;28;20439;-74
2023/09/26 08:56:33;;;;;;;10.63;9.63;;;15.30;99.90;;;;;;5056213;28;20470;-74
2023/09/26 08:59:03;;;;;;;9.97;9.07;;;15.40;99.90;;;;;;5055613;28;20477;-74
2023/09/26 09:01:32;;;;;;;9.70;8.90;;;15.40;99.90;;;;;;5057395;28;20904;-74
2023/09/26 09:04:00;;;;;;;10.57;9.67;;;15.50;99.90;;;;;;5056955;28;20457;-75
2023/09/26 09:06:28;;;;;;;9.63;8.70;;;15.50;99.90;;;;;;5055870;28;20969;-75
2023/09/26 09:09:10;;;;;;;9.40;8.50;;;15.60;99.90;;;;;;5057375;28;20484;-75
2023/09/26 09:11:38;;;;;;;8.80;7.90;;;15.70;99.90;;;;;;5055683;28;20442;-75
2023/09/26 09:14:08;;;;;;;9.53;8.53;;;15.80;99.90;;;;;;5056833;28;20480;-75
2023/09/26 09:16:36;;;;;;;8.70;8.00;;;15.90;99.90;;;;;;5056799;28;20896;-75
2023/09/26 09:19:06;;;;;;;8.40;7.70;;;16.00;99.90;;;;;;5056858;28;20445;-75
2023/09/26 09:21:34;;;;;;;8.73;7.83;;;16.10;99.90;;;;;;5055363;28;20457;-75
2023/09/26 09:24:04;;;;;;;9.17;8.37;;;16.10;99.90;;;;;;5055592;28;20470;-75
2023/09/26 09:26:34;;;;;;;8.80;7.13;;;16.20;99.90;;;;;;5056555;28;20438;-75
2023/09/26 09:29:18;;;;;;;8.73;7.90;;;16.30;99.90;;;;;;5056719;28;20421;-75
2023/09/26 09:31:47;;;;;;;8.60;7.90;;;16.40;99.90;;;;;;5055185;28;20483;-75
2023/09/26 09:34:16;;;;;;;8.67;7.97;;;16.50;99.90;;;;;;5055343;28;20466;-74
2023/09/26 09:36:45;;;;;;;7.13;6.53;;;16.60;99.90;;;;;;5058535;28;20450;-75
2023/09/26 09:39:13;;;;;;;7.83;7.20;;;16.70;99.90;;;;;;5057560;28;20461;-75
2023/09/26 09:41:41;;;;;;;7.50;6.80;;;16.80;99.90;;;;;;5057179;28;20416;-75
2023/09/26 09:44:09;;;;;;;7.17;6.07;;;16.90;99.90;;;;;;5056541;28;20569;-76
2023/09/26 09:46:40;;;;;;;6.27;5.77;;;17.00;99.90;;;;;;5055530;28;20452;-75
2023/09/26 09:49:11;;;;;;;6.87;6.13;;;17.00;99.90;;;;;;5057442;28;20429;-75
2023/09/26 09:51:43;;;;;;;6.80;6.27;;;17.10;99.90;;;;;;5056369;28;20940;-75
2023/09/26 09:54:13;;;;;;;7.90;7.20;;;17.10;99.90;;;;;;5055994;28;20494;-75
2023/09/26 09:56:45;;;;;;;6.77;6.10;;;17.20;99.90;;;;;;5056190;28;20389;-75
2023/09/26 09:59:16;;;;;;;6.80;6.27;;;17.20;99.90;;;;;;5056158;28;20429;-75
2023/09/26 10:01:49;;;;;;;6.33;5.83;;;17.20;99.90;;;;;;5054588;28;20417;-75
2023/09/26 10:04:19;;;;;;;6.17;5.67;;;17.30;99.90;;;;;;5056175;28;20896;-75
2023/09/26 10:06:48;;;;;;;7.43;6.77;;;17.30;99.90;;;;;;5055821;28;20412;-75
2023/09/26 10:09:20;;;;;;;6.93;6.33;;;17.40;99.90;;;;;;5055900;28;20432;-75
2023/09/26 10:11:49;;;;;;;7.80;7.00;;;17.50;99.90;;;;;;5054087;28;20413;-75
2023/09/26 10:14:22;;;;;;;6.87;6.03;;;17.60;99.90;;;;;;5055518;28;20468;-75
2023/09/26 10:16:54;;;;;;;7.17;6.67;;;17.70;99.90;;;;;;5055044;28;20425;-76
2023/09/26 10:19:25;;;;;;;7.50;6.80;;;17.80;99.90;;;;;;5054840;28;20799;-75
2023/09/26 10:25:44;;;;;;;7.10;5.70;;;18.00;99.90;;;;;;5017874;28;20463;-94
2023/09/26 10:28:29;;;;;;;7.00;6.17;;;18.10;99.90;;;;;;5035747;28;20448;-94
2023/09/26 10:30:59;;;;;;;6.20;5.60;;;18.20;99.90;;;;;;5035123;28;20432;-94
2023/09/26 10:33:36;;;;;;;5.87;5.37;;;18.30;99.90;;;;;;5017647;28;20479;-93
2023/09/26 10:36:13;;;;;;;6.30;5.67;;;18.40;99.90;;;;;;5017976;28;20504;-93
2023/09/26 10:38:42;;;;;;;6.33;5.73;;;18.50;99.90;;;;;;5017884;28;20465;-93
2023/09/26 10:41:17;;;;;;;6.97;6.37;;;18.60;99.90;;;;;;5014012;28;20456;-93
2023/09/26 10:43:47;;;;;;;5.97;5.47;;;18.60;99.90;;;;;;5017439;28;20492;-93
2023/09/26 10:46:23;;;;;;;5.03;4.53;;;18.70;99.90;;;;;;5019002;28;20428;-93
2023/09/26 10:48:53;;;;;;;5.47;4.97;;;18.80;99.90;;;;;;5018905;28;20449;-93
2023/09/26 10:51:24;;;;;;;5.30;4.80;;;18.90;99.90;;;;;;5019095;28;20435;-94
2023/09/26 10:53:55;;;;;;;4.47;4.07;;;19.10;99.90;;;;;;5018710;28;20528;-93
2023/09/26 10:56:24;;;;;;;5.67;5.17;;;19.10;99.90;;;;;;5019068;28;20500;-93
2023/09/26 10:59:01;;;;;;;4.93;4.53;;;19.20;99.90;;;;;;5033626;28;20464;-94
2023/09/26 11:01:38;;;;;;;4.87;4.17;;;19.30;99.90;;;;;;5018830;28;20452;-93
2023/09/26 11:04:08;;;;;;;5.27;4.87;;;19.30;99.90;;;;;;5018833;28;20452;-94
2023/09/26 11:06:38;;;;;;;5.17;4.67;;;19.40;99.90;;;;;;5034692;28;20421;-94
2023/09/26 11:09:08;;;;;;;5.70;5.20;;;19.40;99.90;;;;;;5037266;28;20463;-95
2023/09/26 11:11:37;;;;;;;4.00;3.70;;;19.50;99.90;;;;;;5037027;28;20478;-93
2023/09/26 11:14:06;;;;;;;4.20;3.90;;;19.60;99.90;;;;;;5037514;28;20475;-95
2023/09/26 11:16:34;;;;;;;4.40;4.00;;;19.60;99.90;;;;;;5038467;28;20428;-94
2023/09/26 11:19:02;;;;;;;4.40;4.00;;;19.60;99.90;;;;;;5038297;28;20452;-93
2023/09/26 11:21:33;;;;;;;3.73;3.43;;;19.60;99.90;;;;;;5038228;28;20432;-93
2023/09/26 11:24:01;;;;;;;4.10;3.70;;;19.70;99.90;;;;;;5037737;28;20463;-93
2023/09/26 11:26:30;;;;;;;3.50;3.20;;;19.80;99.90;;;;;;5054659;28;20436;-93
2023/09/26 11:28:58;;;;;;;5.63;3.80;;;19.80;99.90;;;;;;5038032;28;20431;-93
2023/09/26 11:31:28;;;;;;;3.87;3.57;;;19.90;99.90;;;;;;5038200;28;20441;-95
2023/09/26 11:33:58;;;;;;;4.00;3.50;;;19.90;99.90;;;;;;5037976;28;20451;-93
2023/09/26 11:36:26;;;;;;;4.00;3.60;;;19.90;99.90;;;;;;5038268;28;20432;-94
2023/09/26 11:38:59;;;;;;;4.50;3.43;;;20.00;99.90;;;;;;5037964;28;20462;-94
2023/09/26 11:41:27;;;;;;;3.60;3.30;;;20.10;99.90;;;;;;5038198;28;20428;-94
2023/09/26 11:44:15;;;;;;;3.97;3.60;;;20.10;99.90;;;;;;5038043;28;20527;-94
2023/09/26 11:46:46;;;;;;;6.80;3.73;;;20.20;99.90;;;;;;5038155;28;20436;-94
2023/09/26 11:49:16;;;;;;;4.50;3.23;;;20.30;99.90;;;;;;5038231;28;20428;-92
2023/09/26 11:51:45;;;;;;;4.40;4.00;;;20.40;99.90;;;;;;5037919;28;20428;-92
2023/09/26 11:54:16;;;;;;;3.80;3.47;;;20.40;99.90;;;;;;5037928;28;20471;-92
2023/09/26 11:56:45;;;;;;;4.67;3.97;;;20.50;99.90;;;;;;5037929;28;20439;-94
2023/09/26 11:59:14;;;;;;;3.80;2.97;;;20.50;99.90;;;;;;5037953;28;20476;-93
2023/09/26 12:01:43;;;;;;;4.50;3.20;;;20.60;99.90;;;;;;5037762;28;20499;-92
2023/09/26 12:04:13;;;;;;;3.80;3.23;;;20.60;99.90;;;;;;5037672;28;20479;-93
2023/09/26 12:06:42;;;;;;;2.90;2.43;;;20.60;99.90;;;;;;5037893;28;20424;-95
2023/09/26 12:09:20;;;;;;;3.60;2.80;;;20.70;99.90;;;;;;5038095;28;20447;-94
2023/09/26 12:11:50;;;;;;;4.83;2.97;;;20.80;99.90;;;;;;5037723;28;20467;-92
2023/09/26 12:14:18;;;;;;;3.57;2.90;;;20.80;99.90;;;;;;5037748;28;20468;-94
2023/09/26 12:16:50;;;;;;;3.87;3.47;;;20.90;99.90;;;;;;5037834;28;20455;-92
2023/09/26 12:19:22;;;;;;;3.17;2.80;;;20.90;99.90;;;;;;5041157;28;20455;-94
2023/09/26 12:21:51;;;;;;;3.40;3.10;;;21.00;99.90;;;;;;5041633;28;20430;-92
2023/09/26 12:24:21;;;;;;;3.23;2.93;;;21.00;99.90;;;;;;5041021;28;20455;-94
2023/09/26 12:26:49;;;;;;;3.30;3.00;;;21.10;99.90;;;;;;5041477;28;20508;-94
2023/09/26 12:29:18;;;;;;;3.50;3.20;;;21.20;99.90;;;;;;5041570;28;20447;-91
2023/09/26 12:31:46;;;;;;;3.20;2.87;;;21.20;99.90;;;;;;5041238;28;20451;-92
2023/09/26 12:34:15;;;;;;;3.73;2.90;;;21.20;99.90;;;;;;5041354;28;20455;-94
2023/09/26 12:36:44;;;;;;;4.53;3.50;;;21.20;99.90;;;;;;5041139;28;20450;-92
2023/09/26 12:39:12;;;;;;;3.33;3.07;;;21.20;99.90;;;;;;5041124;28;20472;-93
2023/09/26 12:41:42;;;;;;;4.27;3.87;;;21.20;99.90;;;;;;5041228;28;20450;-94
2023/09/26 12:44:12;;;;;;;4.97;3.77;;;21.20;99.90;;;;;;5040950;28;20523;-94
2023/09/26 12:46:41;;;;;;;3.93;2.83;;;21.30;99.90;;;;;;5041141;28;20434;-93
2023/09/26 12:49:10;;;;;;;4.00;3.27;;;21.30;99.90;;;;;;5057415;28;20512;-94
2023/09/26 12:51:39;;;;;;;5.90;3.27;;;21.30;99.90;;;;;;5040996;28;20428;-94
2023/09/26 12:54:07;;;;;;;4.30;3.20;;;21.30;99.90;;;;;;5040762;28;20452;-92